45TE weather

Deussen Field
Ponder, Texas, United States

Public forecast

Using degrees Fahrenheit for public forecast. Weather courtesy of forecast.io.

METAR (pilot weather report)

Closest report is Denton Municipal Airport, 6.4 nm (11.9 km) E. Retrieved 2019/07/24 00:53 UTC (31 minutes ago):

KDTO 240053Z 02010KT 10SM CLR 29/14 A3008 RMK AO2 SLP176 T02890139

TAF (pilot weather forecast)

Forecast is more than 12 hours old.

Closest forecast is Fort Worth Alliance Airport, 12.3 nm (22.7 km) S. Retrieved 2019/07/23 00:28 UTC (1 day ago):

TAF KAFW 232326Z 2400/2424 02008KT P6SM FEW070 FM241300 09007KT P6SM FEW060